Friday, December 14, 2018, 1:03 PM EST
Back to Local

KFIT, Fitchburg, Fitchburg Municipal Airport

Location: Leominster, MA, United States Lat: 42.552
Local Time: 1:03 PM EST (18:03 GMT) Lon: -71.756
Time Zone: US/Eastern Elev: 347 ft

Show me the last for .
Show Decoded

2018-12-14 11:52 METAR KFIT 141652Z AUTO 14003KT 10SM CLR 06/M01 A3044 RMK AO2 SLP314 T00561011 =
2018-12-14 10:52 METAR KFIT 141552Z AUTO 16005KT 10SM CLR 04/M01 A3049 RMK AO2 SLP329 T00441011 =
2018-12-14 09:52 METAR KFIT 141452Z AUTO 14006KT 10SM CLR 02/M03 A3052 RMK AO2 SLP340 T00221028
                 50004 =
2018-12-14 08:52 METAR KFIT 141352Z AUTO 00000KT 10SM CLR M01/M06 A3053 RMK AO2 SLP345 T10061056
                 =
2018-12-14 07:52 METAR KFIT 141252Z AUTO 00000KT 10SM CLR M03/M07 A3052 RMK AO2 SLP340 T10281072
                 =
2018-12-14 06:52 METAR KFIT 141152Z AUTO 00000KT 10SM OVC040 M02/M06 A3051 RMK AO2 SLP336
                 T10221061 11022 21028 58004 =
2018-12-14 05:52 METAR KFIT 141052Z AUTO 00000KT 10SM OVC042 M03/M07 A3052 RMK AO2 SLP341
                 T10281067 =
2018-12-14 04:52 METAR KFIT 140952Z AUTO 00000KT 10SM OVC044 M03/M07 A3051 RMK AO2 SLP338
                 T10281072 =
2018-12-14 04:18 METAR KFIT 140918Z AUTO 00000KT 10SM SCT019 OVC046 M03/M08 A3051 RMK AO2
                 T10281078 =
2018-12-14 04:09 METAR KFIT 140909Z AUTO 00000KT 10SM BKN019 OVC047 M03/M07 A3051 RMK AO2
                 T10281072 =
2018-12-14 03:52 METAR KFIT 140852Z AUTO 00000KT 10SM FEW019 OVC047 M03/M08 A3052 RMK AO2 SLP340
                 T10281078 58015 =
2018-12-14 03:26 METAR KFIT 140826Z AUTO 00000KT 10SM SCT021 OVC047 M03/M08 A3052 RMK AO2
                 T10281078 =
2018-12-14 02:52 METAR KFIT 140752Z AUTO 00000KT 10SM OVC024 M03/M08 A3054 RMK AO2 SLP347
                 T10281078 =
2018-12-14 01:52 METAR KFIT 140652Z AUTO 00000KT 10SM OVC025 M03/M08 A3056 RMK AO2 SLP354
                 T10281083 =
2018-12-14 00:52 METAR KFIT 140552Z AUTO 00000KT 10SM OVC028 M03/M08 A3056 RMK AO2 SLP355
                 T10281083 11028 21033 55000 =
2018-12-14 00:19 METAR KFIT 140519Z AUTO 00000KT 10SM OVC029 M03/M08 A3055 RMK AO2 T10281083 =
2018-12-13 23:52 METAR KFIT 140452Z AUTO 00000KT 10SM BKN030 OVC055 M03/M08 A3056 RMK AO2 SLP353
                 T10281083 410281122 =
2018-12-13 22:52 METAR KFIT 140352Z AUTO 00000KT 10SM BKN033 OVC055 M03/M08 A3056 RMK AO2 SLP354
                 T10281083 =
2018-12-13 21:52 METAR KFIT 140252Z AUTO 00000KT 10SM BKN037 OVC060 M03/M09 A3056 RMK AO2 SLP356
                 T10331089 51005 =
2018-12-13 20:52 METAR KFIT 140152Z AUTO 00000KT 10SM OVC039 M03/M09 A3056 RMK AO2 SLP355
                 T10331089 =
2018-12-13 19:52 METAR KFIT 140052Z AUTO 34003KT 10SM OVC042 M03/M08 A3056 RMK AO2 SLP354
                 T10331083 =
2018-12-13 18:52 METAR KFIT 132352Z AUTO 00000KT 10SM BKN045 OVC060 M03/M08 A3055 RMK AO2 SLP352
                 T10331083 11028 21056 51006 =
2018-12-13 17:52 METAR KFIT 132252Z AUTO 00000KT 10SM OVC060 M04/M08 A3055 RMK AO2 SLP351
                 T10391083 =
2018-12-13 16:52 METAR KFIT 132152Z AUTO 00000KT 10SM FEW060 M03/M09 A3053 RMK AO2 SLP347
                 T10331094 =
2018-12-13 15:52 METAR KFIT 132052Z AUTO 14003KT 10SM OVC046 M03/M09 A3053 RMK AO2 SLP345
                 T10281094 53003 =
2018-12-13 14:52 METAR KFIT 131952Z AUTO 00000KT 10SM BKN048 OVC060 M03/M10 A3052 RMK AO2 SLP344
                 T10331100 =
2018-12-13 13:52 METAR KFIT 131852Z AUTO 00000KT 10SM FEW090 M03/M10 A3051 RMK AO2 SLP340
                 T10331100 =

Support USWX by starting your Amazon purchase here.